sensor_id;sensor_type;location;lat;lon;timestamp;P1;durP1;ratioP1;P2;durP2;ratioP2
65871;SDS011;52653;50.080;21.992;2023-02-28T00:02:08;37.40;;;22.20;;
65871;SDS011;52653;50.080;21.992;2023-02-28T00:05:01;37.90;;;23.20;;
65871;SDS011;52653;50.080;21.992;2023-02-28T00:07:41;42.30;;;23.30;;
65871;SDS011;52653;50.080;21.992;2023-02-28T00:10:35;42.20;;;23.10;;
65871;SDS011;52653;50.080;21.992;2023-02-28T00:13:27;39.80;;;22.40;;
65871;SDS011;52653;50.080;21.992;2023-02-28T00:16:11;37.50;;;22.90;;
65871;SDS011;52653;50.080;21.992;2023-02-28T00:19:05;36.50;;;20.80;;
65871;SDS011;52653;50.080;21.992;2023-02-28T00:21:51;36.70;;;20.90;;
65871;SDS011;52653;50.080;21.992;2023-02-28T00:24:44;35.80;;;20.80;;
65871;SDS011;52653;50.080;21.992;2023-02-28T00:27:37;38.30;;;21.50;;
65871;SDS011;52653;50.080;21.992;2023-02-28T00:30:32;36.60;;;21.70;;
65871;SDS011;52653;50.080;21.992;2023-02-28T00:33:24;39.40;;;22.90;;
65871;SDS011;52653;50.080;21.992;2023-02-28T00:36:18;40.80;;;24.90;;
65871;SDS011;52653;50.080;21.992;2023-02-28T00:39:11;41.30;;;24.10;;
65871;SDS011;52653;50.080;21.992;2023-02-28T00:42:04;40.70;;;25.20;;
65871;SDS011;52653;50.080;21.992;2023-02-28T00:44:58;37.30;;;22.70;;
65871;SDS011;52653;50.080;21.992;2023-02-28T00:47:54;42.20;;;25.20;;
65871;SDS011;52653;50.080;21.992;2023-02-28T00:50:49;40.90;;;24.60;;
65871;SDS011;52653;50.080;21.992;2023-02-28T00:53:42;41.60;;;25.10;;
65871;SDS011;52653;50.080;21.992;2023-02-28T00:56:36;41.00;;;25.70;;
65871;SDS011;52653;50.080;21.992;2023-02-28T00:59:22;42.50;;;25.20;;
65871;SDS011;52653;50.080;21.992;2023-02-28T01:02:16;42.10;;;25.40;;
65871;SDS011;52653;50.080;21.992;2023-02-28T01:05:09;37.80;;;23.30;;
65871;SDS011;52653;50.080;21.992;2023-02-28T01:08:05;40.20;;;24.20;;
65871;SDS011;52653;50.080;21.992;2023-02-28T01:10:57;37.50;;;23.30;;
65871;SDS011;52653;50.080;21.992;2023-02-28T01:13:41;35.80;;;23.10;;
65871;SDS011;52653;50.080;21.992;2023-02-28T01:16:28;34.80;;;22.10;;
65871;SDS011;52653;50.080;21.992;2023-02-28T01:19:21;39.30;;;23.20;;
65871;SDS011;52653;50.080;21.992;2023-02-28T01:22:14;43.50;;;25.20;;
65871;SDS011;52653;50.080;21.992;2023-02-28T01:24:58;41.30;;;24.90;;
65871;SDS011;52653;50.080;21.992;2023-02-28T01:27:51;44.30;;;26.80;;
65871;SDS011;52653;50.080;21.992;2023-02-28T01:30:46;45.90;;;27.60;;
65871;SDS011;52653;50.080;21.992;2023-02-28T01:33:39;47.30;;;27.30;;
65871;SDS011;52653;50.080;21.992;2023-02-28T01:36:32;42.90;;;25.80;;
65871;SDS011;52653;50.080;21.992;2023-02-28T01:39:24;42.70;;;24.30;;
65871;SDS011;52653;50.080;21.992;2023-02-28T01:42:17;35.60;;;21.50;;
65871;SDS011;52653;50.080;21.992;2023-02-28T01:45:21;36.50;;;22.50;;
65871;SDS011;52653;50.080;21.992;2023-02-28T01:48:16;36.10;;;22.10;;
65871;SDS011;52653;50.080;21.992;2023-02-28T01:51:04;38.20;;;22.20;;
65871;SDS011;52653;50.080;21.992;2023-02-28T01:54:01;38.80;;;23.60;;
65871;SDS011;52653;50.080;21.992;2023-02-28T01:57:03;37.30;;;22.90;;
65871;SDS011;52653;50.080;21.992;2023-02-28T02:00:03;37.00;;;23.20;;
65871;SDS011;52653;50.080;21.992;2023-02-28T02:03:06;41.30;;;25.40;;
65871;SDS011;52653;50.080;21.992;2023-02-28T02:06:06;41.40;;;25.60;;
65871;SDS011;52653;50.080;21.992;2023-02-28T02:08:59;45.00;;;25.90;;
65871;SDS011;52653;50.080;21.992;2023-02-28T02:11:45;39.80;;;26.10;;
65871;SDS011;52653;50.080;21.992;2023-02-28T02:14:43;44.40;;;26.60;;
65871;SDS011;52653;50.080;21.992;2023-02-28T02:17:50;44.90;;;26.70;;
65871;SDS011;52653;50.080;21.992;2023-02-28T02:34:37;37.80;;;23.90;;
65871;SDS011;52653;50.080;21.992;2023-02-28T02:37:38;47.20;;;27.10;;
65871;SDS011;52653;50.080;21.992;2023-02-28T02:40:29;47.00;;;26.90;;
65871;SDS011;52653;50.080;21.992;2023-02-28T02:43:28;48.70;;;28.10;;
65871;SDS011;52653;50.080;21.992;2023-02-28T02:46:26;48.30;;;28.30;;
65871;SDS011;52653;50.080;21.992;2023-02-28T02:49:24;49.40;;;28.90;;
65871;SDS011;52653;50.080;21.992;2023-02-28T02:52:23;46.70;;;26.80;;
65871;SDS011;52653;50.080;21.992;2023-02-28T02:55:20;42.40;;;25.60;;
65871;SDS011;52653;50.080;21.992;2023-02-28T02:57:57;43.60;;;24.50;;
65871;SDS011;52653;50.080;21.992;2023-02-28T03:00:53;39.10;;;23.30;;
65871;SDS011;52653;50.080;21.992;2023-02-28T03:03:48;37.60;;;22.00;;
65871;SDS011;52653;50.080;21.992;2023-02-28T03:06:40;32.70;;;20.30;;
65871;SDS011;52653;50.080;21.992;2023-02-28T03:09:27;33.50;;;18.90;;
65871;SDS011;52653;50.080;21.992;2023-02-28T03:12:19;33.40;;;19.90;;
65871;SDS011;52653;50.080;21.992;2023-02-28T03:15:13;29.20;;;17.40;;
65871;SDS011;52653;50.080;21.992;2023-02-28T03:18:22;30.50;;;18.00;;
65871;SDS011;52653;50.080;21.992;2023-02-28T03:21:22;34.00;;;19.90;;
65871;SDS011;52653;50.080;21.992;2023-02-28T03:24:14;34.10;;;19.30;;
65871;SDS011;52653;50.080;21.992;2023-02-28T03:27:19;31.70;;;19.40;;
65871;SDS011;52653;50.080;21.992;2023-02-28T03:30:11;33.80;;;20.20;;
65871;SDS011;52653;50.080;21.992;2023-02-28T03:33:05;38.40;;;21.80;;
65871;SDS011;52653;50.080;21.992;2023-02-28T03:36:04;36.40;;;20.30;;
65871;SDS011;52653;50.080;21.992;2023-02-28T03:39:03;34.00;;;21.60;;
65871;SDS011;52653;50.080;21.992;2023-02-28T03:41:49;37.20;;;22.10;;
65871;SDS011;52653;50.080;21.992;2023-02-28T03:44:46;34.90;;;19.60;;
65871;SDS011;52653;50.080;21.992;2023-02-28T03:47:35;28.80;;;17.50;;
65871;SDS011;52653;50.080;21.992;2023-02-28T03:50:16;30.20;;;18.70;;
65871;SDS011;52653;50.080;21.992;2023-02-28T03:53:15;28.10;;;18.30;;
65871;SDS011;52653;50.080;21.992;2023-02-28T03:56:20;27.50;;;16.50;;
65871;SDS011;52653;50.080;21.992;2023-02-28T03:59:18;27.90;;;17.70;;
65871;SDS011;52653;50.080;21.992;2023-02-28T04:02:16;29.70;;;18.40;;
65871;SDS011;52653;50.080;21.992;2023-02-28T04:05:08;24.60;;;15.40;;
65871;SDS011;52653;50.080;21.992;2023-02-28T04:08:05;28.50;;;17.70;;
65871;SDS011;52653;50.080;21.992;2023-02-28T04:11:00;62.30;;;31.50;;
65871;SDS011;52653;50.080;21.992;2023-02-28T04:13:57;39.40;;;21.50;;
65871;SDS011;52653;50.080;21.992;2023-02-28T04:16:50;42.70;;;24.10;;
65871;SDS011;52653;50.080;21.992;2023-02-28T04:19:43;50.30;;;28.60;;
65871;SDS011;52653;50.080;21.992;2023-02-28T04:22:36;52.80;;;30.00;;
65871;SDS011;52653;50.080;21.992;2023-02-28T04:25:29;40.20;;;22.80;;
65871;SDS011;52653;50.080;21.992;2023-02-28T04:28:21;40.90;;;24.70;;
65871;SDS011;52653;50.080;21.992;2023-02-28T04:31:16;44.50;;;25.00;;
65871;SDS011;52653;50.080;21.992;2023-02-28T04:34:09;51.50;;;29.40;;
65871;SDS011;52653;50.080;21.992;2023-02-28T04:37:01;66.40;;;36.60;;
65871;SDS011;52653;50.080;21.992;2023-02-28T04:40:03;44.00;;;25.40;;
65871;SDS011;52653;50.080;21.992;2023-02-28T04:42:57;36.70;;;21.80;;
65871;SDS011;52653;50.080;21.992;2023-02-28T04:45:49;34.40;;;19.70;;
65871;SDS011;52653;50.080;21.992;2023-02-28T04:48:44;34.30;;;20.00;;
65871;SDS011;52653;50.080;21.992;2023-02-28T04:51:29;34.10;;;21.10;;
65871;SDS011;52653;50.080;21.992;2023-02-28T04:54:22;31.10;;;20.50;;
65871;SDS011;52653;50.080;21.992;2023-02-28T04:57:15;28.50;;;19.10;;
65871;SDS011;52653;50.080;21.992;2023-02-28T05:00:09;33.80;;;21.00;;
65871;SDS011;52653;50.080;21.992;2023-02-28T05:03:06;34.10;;;20.70;;
65871;SDS011;52653;50.080;21.992;2023-02-28T05:05:51;30.90;;;20.50;;
65871;SDS011;52653;50.080;21.992;2023-02-28T05:08:45;46.60;;;26.00;;
65871;SDS011;52653;50.080;21.992;2023-02-28T05:11:38;57.60;;;29.30;;
65871;SDS011;52653;50.080;21.992;2023-02-28T05:14:31;56.60;;;29.50;;
65871;SDS011;52653;50.080;21.992;2023-02-28T05:17:24;37.60;;;21.90;;
65871;SDS011;52653;50.080;21.992;2023-02-28T05:20:17;33.30;;;19.60;;
65871;SDS011;52653;50.080;21.992;2023-02-28T05:22:59;32.80;;;19.50;;
65871;SDS011;52653;50.080;21.992;2023-02-28T05:25:52;30.20;;;19.10;;
65871;SDS011;52653;50.080;21.992;2023-02-28T05:28:45;28.40;;;18.00;;
65871;SDS011;52653;50.080;21.992;2023-02-28T05:31:38;28.70;;;18.60;;
65871;SDS011;52653;50.080;21.992;2023-02-28T05:34:31;30.20;;;19.10;;
65871;SDS011;52653;50.080;21.992;2023-02-28T05:37:24;36.00;;;21.00;;
65871;SDS011;52653;50.080;21.992;2023-02-28T05:40:17;36.80;;;22.00;;
65871;SDS011;52653;50.080;21.992;2023-02-28T05:43:11;40.70;;;21.60;;
65871;SDS011;52653;50.080;21.992;2023-02-28T05:46:05;31.90;;;19.50;;
65871;SDS011;52653;50.080;21.992;2023-02-28T05:48:59;34.50;;;21.50;;
65871;SDS011;52653;50.080;21.992;2023-02-28T05:51:52;37.10;;;21.50;;
65871;SDS011;52653;50.080;21.992;2023-02-28T05:54:44;39.50;;;22.70;;
65871;SDS011;52653;50.080;21.992;2023-02-28T05:57:38;36.00;;;21.70;;
65871;SDS011;52653;50.080;21.992;2023-02-28T06:00:31;35.90;;;22.60;;
65871;SDS011;52653;50.080;21.992;2023-02-28T06:03:24;39.60;;;22.50;;
65871;SDS011;52653;50.080;21.992;2023-02-28T06:06:18;35.50;;;22.30;;
65871;SDS011;52653;50.080;21.992;2023-02-28T06:09:11;41.10;;;24.00;;
65871;SDS011;52653;50.080;21.992;2023-02-28T06:12:05;38.60;;;22.50;;
65871;SDS011;52653;50.080;21.992;2023-02-28T06:14:59;33.00;;;21.00;;
65871;SDS011;52653;50.080;21.992;2023-02-28T06:17:53;31.70;;;22.00;;
65871;SDS011;52653;50.080;21.992;2023-02-28T06:20:46;36.30;;;21.20;;
65871;SDS011;52653;50.080;21.992;2023-02-28T06:23:45;32.80;;;20.90;;
65871;SDS011;52653;50.080;21.992;2023-02-28T06:26:37;36.50;;;22.80;;
65871;SDS011;52653;50.080;21.992;2023-02-28T06:29:30;36.50;;;24.10;;
65871;SDS011;52653;50.080;21.992;2023-02-28T06:32:23;37.40;;;22.90;;
65871;SDS011;52653;50.080;21.992;2023-02-28T06:35:16;37.70;;;23.30;;
65871;SDS011;52653;50.080;21.992;2023-02-28T06:38:11;38.80;;;23.00;;
65871;SDS011;52653;50.080;21.992;2023-02-28T06:41:03;38.30;;;23.40;;
65871;SDS011;52653;50.080;21.992;2023-02-28T06:43:58;38.50;;;24.40;;
65871;SDS011;52653;50.080;21.992;2023-02-28T06:46:51;40.70;;;24.70;;
65871;SDS011;52653;50.080;21.992;2023-02-28T06:49:35;35.50;;;22.40;;
65871;SDS011;52653;50.080;21.992;2023-02-28T06:52:31;35.50;;;23.80;;
65871;SDS011;52653;50.080;21.992;2023-02-28T06:55:25;40.00;;;24.80;;
65871;SDS011;52653;50.080;21.992;2023-02-28T06:58:20;37.90;;;21.80;;
65871;SDS011;52653;50.080;21.992;2023-02-28T07:01:13;30.80;;;20.30;;
65871;SDS011;52653;50.080;21.992;2023-02-28T07:04:08;38.00;;;23.60;;
65871;SDS011;52653;50.080;21.992;2023-02-28T07:07:03;39.70;;;23.50;;
65871;SDS011;52653;50.080;21.992;2023-02-28T07:09:57;36.50;;;22.40;;
65871;SDS011;52653;50.080;21.992;2023-02-28T07:12:50;35.30;;;21.60;;
65871;SDS011;52653;50.080;21.992;2023-02-28T07:15:43;37.40;;;21.90;;
65871;SDS011;52653;50.080;21.992;2023-02-28T07:18:47;41.90;;;23.00;;
65871;SDS011;52653;50.080;21.992;2023-02-28T07:21:39;34.50;;;19.60;;
65871;SDS011;52653;50.080;21.992;2023-02-28T07:24:33;38.20;;;21.90;;
65871;SDS011;52653;50.080;21.992;2023-02-28T07:27:20;30.90;;;18.50;;
65871;SDS011;52653;50.080;21.992;2023-02-28T07:30:15;31.60;;;18.00;;
65871;SDS011;52653;50.080;21.992;2023-02-28T07:33:08;23.10;;;14.40;;
65871;SDS011;52653;50.080;21.992;2023-02-28T07:36:02;22.50;;;15.00;;
65871;SDS011;52653;50.080;21.992;2023-02-28T07:38:59;24.90;;;15.60;;
65871;SDS011;52653;50.080;21.992;2023-02-28T07:41:52;28.80;;;18.20;;
65871;SDS011;52653;50.080;21.992;2023-02-28T07:44:44;25.40;;;14.40;;
65871;SDS011;52653;50.080;21.992;2023-02-28T07:47:38;18.70;;;11.50;;
65871;SDS011;52653;50.080;21.992;2023-02-28T07:50:31;19.80;;;12.10;;
65871;SDS011;52653;50.080;21.992;2023-02-28T07:53:24;18.30;;;10.90;;
65871;SDS011;52653;50.080;21.992;2023-02-28T07:56:19;19.20;;;11.90;;
65871;SDS011;52653;50.080;21.992;2023-02-28T07:59:13;20.20;;;11.90;;
65871;SDS011;52653;50.080;21.992;2023-02-28T08:02:08;16.70;;;10.80;;
65871;SDS011;52653;50.080;21.992;2023-02-28T08:05:06;22.00;;;12.10;;
65871;SDS011;52653;50.080;21.992;2023-02-28T08:08:02;17.00;;;10.60;;
65871;SDS011;52653;50.080;21.992;2023-02-28T08:10:57;16.60;;;10.80;;
65871;SDS011;52653;50.080;21.992;2023-02-28T08:13:49;18.00;;;11.90;;
65871;SDS011;52653;50.080;21.992;2023-02-28T08:16:43;18.10;;;11.50;;
65871;SDS011;52653;50.080;21.992;2023-02-28T08:19:36;15.80;;;10.40;;
65871;SDS011;52653;50.080;21.992;2023-02-28T08:22:21;17.80;;;11.30;;
65871;SDS011;52653;50.080;21.992;2023-02-28T08:25:15;17.00;;;10.30;;
65871;SDS011;52653;50.080;21.992;2023-02-28T08:28:07;14.40;;;9.50;;
65871;SDS011;52653;50.080;21.992;2023-02-28T08:31:00;17.50;;;10.40;;
65871;SDS011;52653;50.080;21.992;2023-02-28T08:33:57;15.50;;;10.60;;
65871;SDS011;52653;50.080;21.992;2023-02-28T08:36:51;15.70;;;10.30;;
65871;SDS011;52653;50.080;21.992;2023-02-28T08:39:46;14.50;;;8.90;;
65871;SDS011;52653;50.080;21.992;2023-02-28T08:42:44;15.80;;;10.20;;
65871;SDS011;52653;50.080;21.992;2023-02-28T08:45:38;14.00;;;9.10;;
65871;SDS011;52653;50.080;21.992;2023-02-28T08:48:25;15.70;;;9.80;;
65871;SDS011;52653;50.080;21.992;2023-02-28T08:51:20;16.50;;;10.50;;
65871;SDS011;52653;50.080;21.992;2023-02-28T08:54:17;16.90;;;10.50;;
65871;SDS011;52653;50.080;21.992;2023-02-28T08:57:10;14.70;;;9.10;;
65871;SDS011;52653;50.080;21.992;2023-02-28T09:00:02;15.20;;;9.30;;
65871;SDS011;52653;50.080;21.992;2023-02-28T09:02:59;14.60;;;9.00;;
65871;SDS011;52653;50.080;21.992;2023-02-28T09:05:53;14.20;;;8.80;;
65871;SDS011;52653;50.080;21.992;2023-02-28T09:08:47;13.60;;;8.10;;
65871;SDS011;52653;50.080;21.992;2023-02-28T09:11:41;13.30;;;7.60;;
65871;SDS011;52653;50.080;21.992;2023-02-28T09:14:35;12.00;;;8.10;;
65871;SDS011;52653;50.080;21.992;2023-02-28T09:17:29;11.40;;;7.50;;
65871;SDS011;52653;50.080;21.992;2023-02-28T09:20:35;11.70;;;6.70;;
65871;SDS011;52653;50.080;21.992;2023-02-28T09:23:30;10.90;;;6.40;;
65871;SDS011;52653;50.080;21.992;2023-02-28T09:26:06;9.70;;;6.00;;
65871;SDS011;52653;50.080;21.992;2023-02-28T09:28:54;12.60;;;7.80;;
65871;SDS011;52653;50.080;21.992;2023-02-28T09:31:48;13.00;;;7.90;;
65871;SDS011;52653;50.080;21.992;2023-02-28T09:34:32;12.80;;;7.80;;
65871;SDS011;52653;50.080;21.992;2023-02-28T09:37:26;12.00;;;8.10;;
65871;SDS011;52653;50.080;21.992;2023-02-28T09:40:11;13.10;;;8.20;;
65871;SDS011;52653;50.080;21.992;2023-02-28T09:43:09;14.50;;;8.20;;
65871;SDS011;52653;50.080;21.992;2023-02-28T09:46:08;13.00;;;8.00;;
65871;SDS011;52653;50.080;21.992;2023-02-28T09:48:58;11.50;;;8.10;;
65871;SDS011;52653;50.080;21.992;2023-02-28T09:51:57;13.50;;;7.80;;
65871;SDS011;52653;50.080;21.992;2023-02-28T09:54:52;14.70;;;8.70;;
65871;SDS011;52653;50.080;21.992;2023-02-28T09:57:45;13.20;;;8.10;;
65871;SDS011;52653;50.080;21.992;2023-02-28T10:00:40;12.60;;;9.10;;
65871;SDS011;52653;50.080;21.992;2023-02-28T10:03:36;12.30;;;8.30;;
65871;SDS011;52653;50.080;21.992;2023-02-28T10:06:36;11.90;;;7.80;;
65871;SDS011;52653;50.080;21.992;2023-02-28T10:09:35;14.00;;;8.70;;
65871;SDS011;52653;50.080;21.992;2023-02-28T10:12:29;13.10;;;8.70;;
65871;SDS011;52653;50.080;21.992;2023-02-28T10:15:21;10.70;;;7.10;;
65871;SDS011;52653;50.080;21.992;2023-02-28T10:18:21;12.30;;;7.60;;
65871;SDS011;52653;50.080;21.992;2023-02-28T10:21:19;12.20;;;7.70;;
65871;SDS011;52653;50.080;21.992;2023-02-28T10:24:19;11.60;;;7.60;;
65871;SDS011;52653;50.080;21.992;2023-02-28T10:27:19;12.80;;;8.10;;
65871;SDS011;52653;50.080;21.992;2023-02-28T10:30:14;11.80;;;8.60;;
65871;SDS011;52653;50.080;21.992;2023-02-28T10:33:09;12.10;;;8.30;;
65871;SDS011;52653;50.080;21.992;2023-02-28T10:36:14;12.00;;;7.90;;
65871;SDS011;52653;50.080;21.992;2023-02-28T10:42:29;12.40;;;8.40;;
65871;SDS011;52653;50.080;21.992;2023-02-28T10:45:23;13.50;;;8.30;;
65871;SDS011;52653;50.080;21.992;2023-02-28T10:48:27;11.60;;;7.50;;
65871;SDS011;52653;50.080;21.992;2023-02-28T10:51:24;11.20;;;7.00;;
65871;SDS011;52653;50.080;21.992;2023-02-28T10:54:27;10.50;;;6.80;;
65871;SDS011;52653;50.080;21.992;2023-02-28T10:57:17;10.30;;;7.30;;
65871;SDS011;52653;50.080;21.992;2023-02-28T11:00:15;12.70;;;7.80;;
65871;SDS011;52653;50.080;21.992;2023-02-28T11:03:17;13.70;;;8.90;;
65871;SDS011;52653;50.080;21.992;2023-02-28T11:06:16;13.40;;;8.10;;
65871;SDS011;52653;50.080;21.992;2023-02-28T11:09:18;13.00;;;8.40;;
65871;SDS011;52653;50.080;21.992;2023-02-28T11:12:21;11.70;;;7.70;;
65871;SDS011;52653;50.080;21.992;2023-02-28T11:15:21;11.50;;;8.10;;
65871;SDS011;52653;50.080;21.992;2023-02-28T11:18:21;11.60;;;7.90;;
65871;SDS011;52653;50.080;21.992;2023-02-28T11:21:20;13.10;;;7.80;;
65871;SDS011;52653;50.080;21.992;2023-02-28T11:24:20;12.50;;;8.10;;
65871;SDS011;52653;50.080;21.992;2023-02-28T11:27:38;12.60;;;7.80;;
65871;SDS011;52653;50.080;21.992;2023-02-28T11:30:38;13.00;;;8.20;;
65871;SDS011;52653;50.080;21.992;2023-02-28T11:33:28;11.80;;;7.40;;
65871;SDS011;52653;50.080;21.992;2023-02-28T11:36:24;11.70;;;6.80;;
65871;SDS011;52653;50.080;21.992;2023-02-28T11:39:19;9.80;;;6.40;;
65871;SDS011;52653;50.080;21.992;2023-02-28T11:42:21;12.40;;;7.30;;
65871;SDS011;52653;50.080;21.992;2023-02-28T11:45:32;13.00;;;7.40;;
65871;SDS011;52653;50.080;21.992;2023-02-28T11:48:42;13.40;;;7.50;;
65871;SDS011;52653;50.080;21.992;2023-02-28T11:51:45;12.90;;;8.30;;
65871;SDS011;52653;50.080;21.992;2023-02-28T11:54:49;12.10;;;7.30;;
65871;SDS011;52653;50.080;21.992;2023-02-28T11:57:49;12.80;;;8.20;;
65871;SDS011;52653;50.080;21.992;2023-02-28T12:01:15;12.30;;;7.70;;
65871;SDS011;52653;50.080;21.992;2023-02-28T12:04:21;11.10;;;7.30;;
65871;SDS011;52653;50.080;21.992;2023-02-28T12:07:22;12.00;;;7.30;;
65871;SDS011;52653;50.080;21.992;2023-02-28T12:10:17;11.70;;;7.70;;
65871;SDS011;52653;50.080;21.992;2023-02-28T12:13:18;11.80;;;8.60;;
65871;SDS011;52653;50.080;21.992;2023-02-28T12:16:26;12.20;;;8.10;;
65871;SDS011;52653;50.080;21.992;2023-02-28T12:19:31;14.70;;;9.60;;
65871;SDS011;52653;50.080;21.992;2023-02-28T12:22:35;15.20;;;9.60;;
65871;SDS011;52653;50.080;21.992;2023-02-28T12:25:43;13.20;;;8.80;;
65871;SDS011;52653;50.080;21.992;2023-02-28T12:28:36;14.70;;;9.10;;
65871;SDS011;52653;50.080;21.992;2023-02-28T12:31:33;15.80;;;9.70;;
65871;SDS011;52653;50.080;21.992;2023-02-28T12:34:33;14.00;;;9.40;;
65871;SDS011;52653;50.080;21.992;2023-02-28T12:37:31;15.90;;;10.30;;
65871;SDS011;52653;50.080;21.992;2023-02-28T12:40:22;18.00;;;9.60;;
65871;SDS011;52653;50.080;21.992;2023-02-28T12:43:19;16.10;;;9.40;;
65871;SDS011;52653;50.080;21.992;2023-02-28T12:46:07;16.20;;;9.70;;
65871;SDS011;52653;50.080;21.992;2023-02-28T12:49:08;14.90;;;9.80;;
65871;SDS011;52653;50.080;21.992;2023-02-28T12:52:02;15.10;;;9.70;;
65871;SDS011;52653;50.080;21.992;2023-02-28T12:55:03;14.30;;;9.70;;
65871;SDS011;52653;50.080;21.992;2023-02-28T12:58:01;15.90;;;9.70;;
65871;SDS011;52653;50.080;21.992;2023-02-28T13:04:45;15.80;;;10.60;;
65871;SDS011;52653;50.080;21.992;2023-02-28T13:11:24;14.90;;;9.90;;
65871;SDS011;52653;50.080;21.992;2023-02-28T13:14:24;15.40;;;10.60;;
65871;SDS011;52653;50.080;21.992;2023-02-28T13:17:21;14.70;;;10.30;;
65871;SDS011;52653;50.080;21.992;2023-02-28T13:20:16;15.20;;;10.10;;
65871;SDS011;52653;50.080;21.992;2023-02-28T13:44:09;18.70;;;11.30;;
65871;SDS011;52653;50.080;21.992;2023-02-28T13:50:15;16.60;;;11.20;;
65871;SDS011;52653;50.080;21.992;2023-02-28T13:56:47;16.90;;;9.70;;
65871;SDS011;52653;50.080;21.992;2023-02-28T13:59:51;13.80;;;9.50;;
65871;SDS011;52653;50.080;21.992;2023-02-28T14:03:04;13.20;;;9.00;;
65871;SDS011;52653;50.080;21.992;2023-02-28T14:06:15;15.70;;;10.40;;
65871;SDS011;52653;50.080;21.992;2023-02-28T14:09:18;15.20;;;9.80;;
65871;SDS011;52653;50.080;21.992;2023-02-28T14:15:50;12.70;;;8.10;;
65871;SDS011;52653;50.080;21.992;2023-02-28T14:18:51;12.00;;;7.70;;
65871;SDS011;52653;50.080;21.992;2023-02-28T14:21:56;12.10;;;7.30;;
65871;SDS011;52653;50.080;21.992;2023-02-28T14:25:18;9.70;;;6.70;;
65871;SDS011;52653;50.080;21.992;2023-02-28T14:28:24;11.80;;;7.40;;
65871;SDS011;52653;50.080;21.992;2023-02-28T14:31:31;12.00;;;8.10;;
65871;SDS011;52653;50.080;21.992;2023-02-28T14:37:23;12.60;;;7.40;;
65871;SDS011;52653;50.080;21.992;2023-02-28T14:40:21;14.00;;;9.00;;
65871;SDS011;52653;50.080;21.992;2023-02-28T14:43:29;12.00;;;7.90;;
65871;SDS011;52653;50.080;21.992;2023-02-28T14:46:13;16.00;;;9.80;;
65871;SDS011;52653;50.080;21.992;2023-02-28T14:49:11;14.20;;;9.60;;
65871;SDS011;52653;50.080;21.992;2023-02-28T14:52:13;13.60;;;8.60;;
65871;SDS011;52653;50.080;21.992;2023-02-28T14:55:12;14.90;;;8.10;;
65871;SDS011;52653;50.080;21.992;2023-02-28T14:58:19;13.30;;;8.30;;
65871;SDS011;52653;50.080;21.992;2023-02-28T15:01:19;13.30;;;8.20;;
65871;SDS011;52653;50.080;21.992;2023-02-28T15:04:18;14.10;;;8.80;;
65871;SDS011;52653;50.080;21.992;2023-02-28T15:07:09;14.40;;;9.50;;
65871;SDS011;52653;50.080;21.992;2023-02-28T15:10:09;16.40;;;10.80;;
65871;SDS011;52653;50.080;21.992;2023-02-28T15:13:07;17.50;;;10.80;;
65871;SDS011;52653;50.080;21.992;2023-02-28T15:16:06;16.70;;;10.90;;
65871;SDS011;52653;50.080;21.992;2023-02-28T15:18:56;18.00;;;11.50;;
65871;SDS011;52653;50.080;21.992;2023-02-28T15:21:53;19.10;;;11.40;;
65871;SDS011;52653;50.080;21.992;2023-02-28T15:24:52;17.40;;;10.90;;
65871;SDS011;52653;50.080;21.992;2023-02-28T15:27:47;19.60;;;12.20;;
65871;SDS011;52653;50.080;21.992;2023-02-28T15:30:37;19.70;;;12.40;;
65871;SDS011;52653;50.080;21.992;2023-02-28T15:33:30;20.60;;;13.30;;
65871;SDS011;52653;50.080;21.992;2023-02-28T15:36:20;20.10;;;12.40;;
65871;SDS011;52653;50.080;21.992;2023-02-28T15:39:20;20.90;;;13.00;;
65871;SDS011;52653;50.080;21.992;2023-02-28T15:42:12;20.50;;;13.30;;
65871;SDS011;52653;50.080;21.992;2023-02-28T15:48:25;21.10;;;12.50;;
65871;SDS011;52653;50.080;21.992;2023-02-28T15:51:20;19.90;;;12.50;;
65871;SDS011;52653;50.080;21.992;2023-02-28T15:54:16;19.60;;;12.50;;
65871;SDS011;52653;50.080;21.992;2023-02-28T15:57:17;21.10;;;13.10;;
65871;SDS011;52653;50.080;21.992;2023-02-28T16:00:14;19.20;;;12.40;;
65871;SDS011;52653;50.080;21.992;2023-02-28T16:06:35;24.10;;;13.60;;
65871;SDS011;52653;50.080;21.992;2023-02-28T16:09:21;23.40;;;14.50;;
65871;SDS011;52653;50.080;21.992;2023-02-28T16:12:04;22.70;;;13.50;;
65871;SDS011;52653;50.080;21.992;2023-02-28T16:15:05;23.10;;;15.10;;
65871;SDS011;52653;50.080;21.992;2023-02-28T16:17:53;26.00;;;14.80;;
65871;SDS011;52653;50.080;21.992;2023-02-28T16:20:36;27.10;;;15.10;;
65871;SDS011;52653;50.080;21.992;2023-02-28T16:23:19;25.60;;;16.00;;
65871;SDS011;52653;50.080;21.992;2023-02-28T16:26:16;24.70;;;15.00;;
65871;SDS011;52653;50.080;21.992;2023-02-28T16:29:03;25.80;;;15.70;;
65871;SDS011;52653;50.080;21.992;2023-02-28T16:31:48;27.30;;;16.60;;
65871;SDS011;52653;50.080;21.992;2023-02-28T16:34:42;29.00;;;17.10;;
65871;SDS011;52653;50.080;21.992;2023-02-28T16:37:27;39.30;;;19.90;;
65871;SDS011;52653;50.080;21.992;2023-02-28T16:40:06;44.00;;;22.10;;
65871;SDS011;52653;50.080;21.992;2023-02-28T16:43:05;42.80;;;21.60;;
65871;SDS011;52653;50.080;21.992;2023-02-28T16:46:12;44.00;;;22.70;;
65871;SDS011;52653;50.080;21.992;2023-02-28T16:49:00;54.20;;;25.20;;
65871;SDS011;52653;50.080;21.992;2023-02-28T16:51:53;47.20;;;26.10;;
65871;SDS011;52653;50.080;21.992;2023-02-28T16:54:28;51.90;;;25.00;;
65871;SDS011;52653;50.080;21.992;2023-02-28T16:57:17;40.60;;;21.50;;
65871;SDS011;52653;50.080;21.992;2023-02-28T17:00:13;43.60;;;23.10;;
65871;SDS011;52653;50.080;21.992;2023-02-28T17:02:47;43.50;;;25.00;;
65871;SDS011;52653;50.080;21.992;2023-02-28T17:05:42;40.40;;;24.00;;
65871;SDS011;52653;50.080;21.992;2023-02-28T17:08:20;47.00;;;25.40;;
65871;SDS011;52653;50.080;21.992;2023-02-28T17:11:13;46.50;;;25.20;;
65871;SDS011;52653;50.080;21.992;2023-02-28T17:14:06;44.30;;;27.20;;
65871;SDS011;52653;50.080;21.992;2023-02-28T17:16:59;43.40;;;25.40;;
65871;SDS011;52653;50.080;21.992;2023-02-28T17:19:35;46.70;;;26.70;;
65871;SDS011;52653;50.080;21.992;2023-02-28T17:22:31;43.00;;;25.10;;
65871;SDS011;52653;50.080;21.992;2023-02-28T17:25:04;43.10;;;26.00;;
65871;SDS011;52653;50.080;21.992;2023-02-28T17:27:50;41.40;;;25.10;;
65871;SDS011;52653;50.080;21.992;2023-02-28T17:30:32;53.20;;;29.30;;
65871;SDS011;52653;50.080;21.992;2023-02-28T17:33:21;53.80;;;30.20;;
65871;SDS011;52653;50.080;21.992;2023-02-28T17:35:56;51.40;;;29.90;;
65871;SDS011;52653;50.080;21.992;2023-02-28T17:38:51;117.60;;;52.50;;
65871;SDS011;52653;50.080;21.992;2023-02-28T17:41:44;158.60;;;66.40;;
65871;SDS011;52653;50.080;21.992;2023-02-28T17:44:20;145.00;;;63.60;;
65871;SDS011;52653;50.080;21.992;2023-02-28T17:47:08;131.40;;;55.80;;
65871;SDS011;52653;50.080;21.992;2023-02-28T17:50:04;139.30;;;60.90;;
65871;SDS011;52653;50.080;21.992;2023-02-28T17:52:56;133.60;;;61.00;;
65871;SDS011;52653;50.080;21.992;2023-02-28T17:55:42;120.90;;;57.20;;
65871;SDS011;52653;50.080;21.992;2023-02-28T17:58:30;130.60;;;58.60;;